Terminal Aerodrome Forecast
Issued by NWS

Home | Current Version | Previous Version | Text Only | Print | Product List | Glossary On
Versions: 1 2 3 4 5 6 7 8 9 10 11 12 13 14 15 16 17 18 19
000
FTUS43 KIND 131300 AAA
TAFHUF
TAF AMD
KHUF 131309Z 1313/1412 24010KT P6SM BKN150
     FM131500 25009KT P6SM SCT015 BKN100
     FM131900 26008KT P6SM VCTS SCT020CB BKN100
     FM140200 28005KT P6SM BKN100
     FM140800 30003KT 4SM BR SCT250=

USA.gov is the U.S. government's official web portal to all federal, state and local government web resources and services.